sensor_id;sensor_type;location;lat;lon;timestamp;temperature;humidity
31799;DHT22;18374;51.136;3.502;2022-12-13T00:00:38;-3.20;99.90
31799;DHT22;18374;51.136;3.502;2022-12-13T00:03:59;-3.20;99.90
31799;DHT22;18374;51.136;3.502;2022-12-13T00:07:20;-3.20;99.90
31799;DHT22;18374;51.136;3.502;2022-12-13T00:10:40;-3.20;99.90
31799;DHT22;18374;51.136;3.502;2022-12-13T00:14:00;-3.30;99.90
31799;DHT22;18374;51.136;3.502;2022-12-13T00:17:20;-3.30;99.90
31799;DHT22;18374;51.136;3.502;2022-12-13T00:20:41;-3.30;99.90
31799;DHT22;18374;51.136;3.502;2022-12-13T00:24:01;-3.40;99.90
31799;DHT22;18374;51.136;3.502;2022-12-13T00:27:23;-3.40;99.90
31799;DHT22;18374;51.136;3.502;2022-12-13T00:30:43;-3.40;99.90
31799;DHT22;18374;51.136;3.502;2022-12-13T00:34:23;-3.50;99.90
31799;DHT22;18374;51.136;3.502;2022-12-13T00:37:45;-3.40;99.90
31799;DHT22;18374;51.136;3.502;2022-12-13T00:44:31;-3.50;99.90
31799;DHT22;18374;51.136;3.502;2022-12-13T00:47:51;-3.50;99.90
31799;DHT22;18374;51.136;3.502;2022-12-13T00:51:14;-3.50;99.90
31799;DHT22;18374;51.136;3.502;2022-12-13T00:54:34;-3.50;99.90
31799;DHT22;18374;51.136;3.502;2022-12-13T00:57:54;-3.40;99.90
31799;DHT22;18374;51.136;3.502;2022-12-13T01:01:19;-3.40;99.90
31799;DHT22;18374;51.136;3.502;2022-12-13T01:04:39;-3.40;99.90
31799;DHT22;18374;51.136;3.502;2022-12-13T01:08:21;-3.30;99.90
31799;DHT22;18374;51.136;3.502;2022-12-13T01:11:48;-3.30;99.90
31799;DHT22;18374;51.136;3.502;2022-12-13T01:15:08;-3.30;99.90
31799;DHT22;18374;51.136;3.502;2022-12-13T01:18:29;-3.40;99.90
31799;DHT22;18374;51.136;3.502;2022-12-13T01:21:56;-3.40;99.90
31799;DHT22;18374;51.136;3.502;2022-12-13T01:25:16;-3.40;99.90
31799;DHT22;18374;51.136;3.502;2022-12-13T01:28:38;-3.40;99.90
31799;DHT22;18374;51.136;3.502;2022-12-13T01:31:58;-3.40;99.90
31799;DHT22;18374;51.136;3.502;2022-12-13T01:35:18;-3.40;99.90
31799;DHT22;18374;51.136;3.502;2022-12-13T01:38:39;-3.40;99.90
31799;DHT22;18374;51.136;3.502;2022-12-13T01:42:04;-3.50;99.90
31799;DHT22;18374;51.136;3.502;2022-12-13T01:45:25;-3.50;99.90
31799;DHT22;18374;51.136;3.502;2022-12-13T01:48:47;-3.50;99.90
31799;DHT22;18374;51.136;3.502;2022-12-13T01:52:11;-3.50;99.90
31799;DHT22;18374;51.136;3.502;2022-12-13T01:55:33;-3.50;99.90
31799;DHT22;18374;51.136;3.502;2022-12-13T01:58:59;-3.50;99.90
31799;DHT22;18374;51.136;3.502;2022-12-13T02:02:20;-3.50;99.90
31799;DHT22;18374;51.136;3.502;2022-12-13T02:09:17;-3.60;99.90
31799;DHT22;18374;51.136;3.502;2022-12-13T02:12:37;-3.60;99.90
31799;DHT22;18374;51.136;3.502;2022-12-13T02:27:18;-3.90;99.90
31799;DHT22;18374;51.136;3.502;2022-12-13T02:34:35;-4.00;99.90
31799;DHT22;18374;51.136;3.502;2022-12-13T02:38:05;-4.10;99.90
31799;DHT22;18374;51.136;3.502;2022-12-13T02:41:47;-4.10;99.90
31799;DHT22;18374;51.136;3.502;2022-12-13T02:45:15;-4.10;99.90
31799;DHT22;18374;51.136;3.502;2022-12-13T02:48:37;-4.10;99.90
31799;DHT22;18374;51.136;3.502;2022-12-13T02:52:00;-4.10;99.90
31799;DHT22;18374;51.136;3.502;2022-12-13T02:55:21;-4.20;99.90
31799;DHT22;18374;51.136;3.502;2022-12-13T02:58:42;-4.20;99.90
31799;DHT22;18374;51.136;3.502;2022-12-13T03:02:10;-4.20;99.90
31799;DHT22;18374;51.136;3.502;2022-12-13T03:12:55;-4.30;99.90
31799;DHT22;18374;51.136;3.502;2022-12-13T03:16:34;-4.40;99.90
31799;DHT22;18374;51.136;3.502;2022-12-13T03:19:57;-4.40;99.90
31799;DHT22;18374;51.136;3.502;2022-12-13T03:23:23;-4.50;99.90
31799;DHT22;18374;51.136;3.502;2022-12-13T03:26:43;-4.50;99.90
31799;DHT22;18374;51.136;3.502;2022-12-13T03:30:04;-4.50;99.90
31799;DHT22;18374;51.136;3.502;2022-12-13T03:33:24;-4.40;99.90
31799;DHT22;18374;51.136;3.502;2022-12-13T03:36:50;-4.40;99.90
31799;DHT22;18374;51.136;3.502;2022-12-13T03:40:10;-4.40;99.90
31799;DHT22;18374;51.136;3.502;2022-12-13T03:43:31;-4.40;99.90
31799;DHT22;18374;51.136;3.502;2022-12-13T03:46:57;-4.40;99.90
31799;DHT22;18374;51.136;3.502;2022-12-13T03:50:17;-4.40;99.90
31799;DHT22;18374;51.136;3.502;2022-12-13T03:53:37;-4.40;99.90
31799;DHT22;18374;51.136;3.502;2022-12-13T03:56:57;-4.40;99.90
31799;DHT22;18374;51.136;3.502;2022-12-13T04:00:17;-4.40;99.90
31799;DHT22;18374;51.136;3.502;2022-12-13T04:03:42;-4.40;99.90
31799;DHT22;18374;51.136;3.502;2022-12-13T04:07:02;-4.50;99.90
31799;DHT22;18374;51.136;3.502;2022-12-13T04:10:27;-4.50;99.90
31799;DHT22;18374;51.136;3.502;2022-12-13T04:14:09;-4.50;99.90
31799;DHT22;18374;51.136;3.502;2022-12-13T04:17:30;-4.40;99.90
31799;DHT22;18374;51.136;3.502;2022-12-13T04:20:50;-4.50;99.90
31799;DHT22;18374;51.136;3.502;2022-12-13T04:24:10;-4.40;99.90
31799;DHT22;18374;51.136;3.502;2022-12-13T04:27:31;-4.50;99.90
31799;DHT22;18374;51.136;3.502;2022-12-13T04:30:51;-4.50;99.90
31799;DHT22;18374;51.136;3.502;2022-12-13T04:34:12;-4.50;99.90
31799;DHT22;18374;51.136;3.502;2022-12-13T04:37:32;-4.50;99.90
31799;DHT22;18374;51.136;3.502;2022-12-13T04:40:52;-4.50;99.90
31799;DHT22;18374;51.136;3.502;2022-12-13T04:44:12;-4.50;99.90
31799;DHT22;18374;51.136;3.502;2022-12-13T04:47:32;-4.50;99.90
31799;DHT22;18374;51.136;3.502;2022-12-13T04:50:57;-4.50;99.90
31799;DHT22;18374;51.136;3.502;2022-12-13T04:54:25;-4.50;99.90
31799;DHT22;18374;51.136;3.502;2022-12-13T04:57:45;-4.50;99.90
31799;DHT22;18374;51.136;3.502;2022-12-13T05:01:05;-4.50;99.90
31799;DHT22;18374;51.136;3.502;2022-12-13T05:04:25;-4.50;99.90
31799;DHT22;18374;51.136;3.502;2022-12-13T05:07:46;-4.50;99.90
31799;DHT22;18374;51.136;3.502;2022-12-13T05:11:06;-4.50;99.90
31799;DHT22;18374;51.136;3.502;2022-12-13T05:14:31;-4.50;99.90
31799;DHT22;18374;51.136;3.502;2022-12-13T05:17:51;-4.50;99.90
31799;DHT22;18374;51.136;3.502;2022-12-13T05:21:11;-4.50;99.90
31799;DHT22;18374;51.136;3.502;2022-12-13T05:24:33;-4.50;99.90
31799;DHT22;18374;51.136;3.502;2022-12-13T05:27:52;-4.50;99.90
31799;DHT22;18374;51.136;3.502;2022-12-13T05:31:12;-4.50;99.90
31799;DHT22;18374;51.136;3.502;2022-12-13T05:34:33;-4.50;99.90
31799;DHT22;18374;51.136;3.502;2022-12-13T05:37:53;-4.50;99.90
31799;DHT22;18374;51.136;3.502;2022-12-13T05:41:16;-4.50;99.90
31799;DHT22;18374;51.136;3.502;2022-12-13T05:44:38;-4.50;99.90
31799;DHT22;18374;51.136;3.502;2022-12-13T05:47:58;-4.50;99.90
31799;DHT22;18374;51.136;3.502;2022-12-13T05:51:18;-4.50;99.90
31799;DHT22;18374;51.136;3.502;2022-12-13T05:54:45;-4.50;99.90
31799;DHT22;18374;51.136;3.502;2022-12-13T05:58:05;-4.60;99.90
31799;DHT22;18374;51.136;3.502;2022-12-13T06:01:26;-4.60;99.90
31799;DHT22;18374;51.136;3.502;2022-12-13T06:04:48;-4.60;99.90
31799;DHT22;18374;51.136;3.502;2022-12-13T06:08:10;-4.70;99.90
31799;DHT22;18374;51.136;3.502;2022-12-13T06:11:30;-4.70;99.90
31799;DHT22;18374;51.136;3.502;2022-12-13T06:14:58;-4.80;99.90
31799;DHT22;18374;51.136;3.502;2022-12-13T06:18:31;-4.80;99.90
31799;DHT22;18374;51.136;3.502;2022-12-13T06:21:52;-4.80;99.90
31799;DHT22;18374;51.136;3.502;2022-12-13T06:25:12;-4.90;99.90
31799;DHT22;18374;51.136;3.502;2022-12-13T06:28:32;-4.90;99.90
31799;DHT22;18374;51.136;3.502;2022-12-13T06:31:56;-4.90;99.90
31799;DHT22;18374;51.136;3.502;2022-12-13T06:35:17;-4.90;99.90
31799;DHT22;18374;51.136;3.502;2022-12-13T06:38:37;-5.00;99.90
31799;DHT22;18374;51.136;3.502;2022-12-13T06:42:05;-4.90;99.90
31799;DHT22;18374;51.136;3.502;2022-12-13T06:45:26;-4.90;99.90
31799;DHT22;18374;51.136;3.502;2022-12-13T06:48:46;-5.00;99.90
31799;DHT22;18374;51.136;3.502;2022-12-13T06:52:09;-5.00;99.90
31799;DHT22;18374;51.136;3.502;2022-12-13T06:55:29;-5.00;99.90
31799;DHT22;18374;51.136;3.502;2022-12-13T06:58:49;-5.00;99.90
31799;DHT22;18374;51.136;3.502;2022-12-13T07:02:09;-5.00;99.90
31799;DHT22;18374;51.136;3.502;2022-12-13T07:05:29;-5.00;99.90
31799;DHT22;18374;51.136;3.502;2022-12-13T07:08:51;-5.00;99.90
31799;DHT22;18374;51.136;3.502;2022-12-13T07:12:11;-4.90;99.90
31799;DHT22;18374;51.136;3.502;2022-12-13T07:15:32;-4.90;99.90
31799;DHT22;18374;51.136;3.502;2022-12-13T07:18:53;-4.80;99.90
31799;DHT22;18374;51.136;3.502;2022-12-13T07:22:14;-4.80;99.90
31799;DHT22;18374;51.136;3.502;2022-12-13T07:25:34;-4.70;99.90
31799;DHT22;18374;51.136;3.502;2022-12-13T07:28:54;-4.70;99.90
31799;DHT22;18374;51.136;3.502;2022-12-13T07:32:14;-4.60;99.90
31799;DHT22;18374;51.136;3.502;2022-12-13T07:35:34;-4.60;99.90
31799;DHT22;18374;51.136;3.502;2022-12-13T07:38:55;-4.70;99.90
31799;DHT22;18374;51.136;3.502;2022-12-13T07:42:17;-4.60;99.90
31799;DHT22;18374;51.136;3.502;2022-12-13T07:45:38;-4.60;99.90
31799;DHT22;18374;51.136;3.502;2022-12-13T07:49:00;-4.40;99.90
31799;DHT22;18374;51.136;3.502;2022-12-13T07:52:20;-4.40;99.90
31799;DHT22;18374;51.136;3.502;2022-12-13T07:55:40;-4.40;99.90
31799;DHT22;18374;51.136;3.502;2022-12-13T07:59:01;-4.40;99.90
31799;DHT22;18374;51.136;3.502;2022-12-13T08:02:21;-4.40;99.90
31799;DHT22;18374;51.136;3.502;2022-12-13T08:05:59;-4.40;99.90
31799;DHT22;18374;51.136;3.502;2022-12-13T08:09:19;-4.40;99.90
31799;DHT22;18374;51.136;3.502;2022-12-13T08:12:39;-4.40;99.90
31799;DHT22;18374;51.136;3.502;2022-12-13T08:16:00;-4.40;99.90
31799;DHT22;18374;51.136;3.502;2022-12-13T08:19:20;-4.30;99.90
31799;DHT22;18374;51.136;3.502;2022-12-13T08:22:55;-4.10;99.90
31799;DHT22;18374;51.136;3.502;2022-12-13T08:26:15;-4.10;99.90
31799;DHT22;18374;51.136;3.502;2022-12-13T08:29:35;-4.00;99.90
31799;DHT22;18374;51.136;3.502;2022-12-13T08:32:56;-3.90;99.90
31799;DHT22;18374;51.136;3.502;2022-12-13T08:36:16;-3.90;99.90
31799;DHT22;18374;51.136;3.502;2022-12-13T08:39:36;-3.80;99.90
31799;DHT22;18374;51.136;3.502;2022-12-13T08:42:57;-3.70;99.90
31799;DHT22;18374;51.136;3.502;2022-12-13T08:46:17;-3.60;99.90
31799;DHT22;18374;51.136;3.502;2022-12-13T08:49:37;-3.50;99.90
31799;DHT22;18374;51.136;3.502;2022-12-13T08:52:57;-3.40;99.90
31799;DHT22;18374;51.136;3.502;2022-12-13T08:56:17;-3.30;99.90
31799;DHT22;18374;51.136;3.502;2022-12-13T08:59:37;-3.30;99.90
31799;DHT22;18374;51.136;3.502;2022-12-13T09:03:03;-3.20;99.90
31799;DHT22;18374;51.136;3.502;2022-12-13T09:06:23;-3.20;99.90
31799;DHT22;18374;51.136;3.502;2022-12-13T09:09:43;-3.10;99.90
31799;DHT22;18374;51.136;3.502;2022-12-13T09:13:04;-3.10;99.90
31799;DHT22;18374;51.136;3.502;2022-12-13T09:16:27;-2.90;99.90
31799;DHT22;18374;51.136;3.502;2022-12-13T09:19:51;-2.80;99.90
31799;DHT22;18374;51.136;3.502;2022-12-13T09:23:11;-2.70;99.90
31799;DHT22;18374;51.136;3.502;2022-12-13T09:26:50;-2.70;99.90
31799;DHT22;18374;51.136;3.502;2022-12-13T09:30:10;-2.60;99.90
31799;DHT22;18374;51.136;3.502;2022-12-13T09:33:38;-2.50;99.90
31799;DHT22;18374;51.136;3.502;2022-12-13T09:36:59;-2.60;99.90
31799;DHT22;18374;51.136;3.502;2022-12-13T09:40:20;-2.50;99.90
31799;DHT22;18374;51.136;3.502;2022-12-13T09:43:56;-2.50;99.90
31799;DHT22;18374;51.136;3.502;2022-12-13T09:47:33;-2.40;99.90
31799;DHT22;18374;51.136;3.502;2022-12-13T09:51:01;-2.30;99.90
31799;DHT22;18374;51.136;3.502;2022-12-13T09:54:37;-2.10;99.90
31799;DHT22;18374;51.136;3.502;2022-12-13T09:57:59;-2.00;99.90
31799;DHT22;18374;51.136;3.502;2022-12-13T10:01:21;-1.90;99.90
31799;DHT22;18374;51.136;3.502;2022-12-13T10:04:44;-1.80;99.90
31799;DHT22;18374;51.136;3.502;2022-12-13T10:08:15;-1.70;99.90
31799;DHT22;18374;51.136;3.502;2022-12-13T10:11:50;-1.60;99.90
31799;DHT22;18374;51.136;3.502;2022-12-13T10:15:11;-1.60;99.90
31799;DHT22;18374;51.136;3.502;2022-12-13T10:19:47;-1.60;99.90
31799;DHT22;18374;51.136;3.502;2022-12-13T10:22:47;-1.50;99.90
31799;DHT22;18374;51.136;3.502;2022-12-13T10:26:28;-1.40;99.90
31799;DHT22;18374;51.136;3.502;2022-12-13T10:30:18;-1.20;99.90
31799;DHT22;18374;51.136;3.502;2022-12-13T10:33:51;-1.00;99.90
31799;DHT22;18374;51.136;3.502;2022-12-13T10:37:28;-0.90;99.90
31799;DHT22;18374;51.136;3.502;2022-12-13T10:41:02;-0.80;99.90
31799;DHT22;18374;51.136;3.502;2022-12-13T10:44:28;-0.70;99.90
31799;DHT22;18374;51.136;3.502;2022-12-13T10:47:50;-0.60;99.90
31799;DHT22;18374;51.136;3.502;2022-12-13T10:51:16;-0.50;99.90
31799;DHT22;18374;51.136;3.502;2022-12-13T10:55:02;-0.50;99.90
31799;DHT22;18374;51.136;3.502;2022-12-13T10:58:38;-0.50;99.90
31799;DHT22;18374;51.136;3.502;2022-12-13T11:02:24;-0.60;99.90
31799;DHT22;18374;51.136;3.502;2022-12-13T11:06:04;-0.50;99.90
31799;DHT22;18374;51.136;3.502;2022-12-13T11:09:33;-0.50;99.90
31799;DHT22;18374;51.136;3.502;2022-12-13T11:12:59;-0.50;99.90
31799;DHT22;18374;51.136;3.502;2022-12-13T11:16:31;-0.40;99.90
31799;DHT22;18374;51.136;3.502;2022-12-13T11:19:57;-0.30;99.90
31799;DHT22;18374;51.136;3.502;2022-12-13T11:23:25;-0.20;99.90
31799;DHT22;18374;51.136;3.502;2022-12-13T11:26:59;-0.10;99.90
31799;DHT22;18374;51.136;3.502;2022-12-13T11:30:57;-0.10;99.90
31799;DHT22;18374;51.136;3.502;2022-12-13T11:38:23;0.00;99.90
31799;DHT22;18374;51.136;3.502;2022-12-13T11:45:18;0.10;99.90
31799;DHT22;18374;51.136;3.502;2022-12-13T11:48:53;0.20;99.90
31799;DHT22;18374;51.136;3.502;2022-12-13T11:55:39;0.20;99.90
31799;DHT22;18374;51.136;3.502;2022-12-13T12:02:41;0.20;99.90
31799;DHT22;18374;51.136;3.502;2022-12-13T12:06:17;0.20;99.90
31799;DHT22;18374;51.136;3.502;2022-12-13T12:10:22;0.20;99.90
31799;DHT22;18374;51.136;3.502;2022-12-13T12:13:52;0.20;99.90
31799;DHT22;18374;51.136;3.502;2022-12-13T12:17:42;0.20;99.90
31799;DHT22;18374;51.136;3.502;2022-12-13T13:04:11;0.40;99.90
31799;DHT22;18374;51.136;3.502;2022-12-13T13:07:44;0.40;99.90
31799;DHT22;18374;51.136;3.502;2022-12-13T13:11:06;0.40;99.90
31799;DHT22;18374;51.136;3.502;2022-12-13T13:14:49;0.40;99.90
31799;DHT22;18374;51.136;3.502;2022-12-13T13:24:59;0.30;99.90
31799;DHT22;18374;51.136;3.502;2022-12-13T13:28:51;0.40;99.90
31799;DHT22;18374;51.136;3.502;2022-12-13T13:54:41;0.40;99.90
31799;DHT22;18374;51.136;3.502;2022-12-13T14:09:35;0.50;99.90
31799;DHT22;18374;51.136;3.502;2022-12-13T14:20:43;0.40;99.90
31799;DHT22;18374;51.136;3.502;2022-12-13T14:32:00;0.10;99.90
31799;DHT22;18374;51.136;3.502;2022-12-13T14:35:22;0.10;99.90
31799;DHT22;18374;51.136;3.502;2022-12-13T14:38:43;0.10;99.90
31799;DHT22;18374;51.136;3.502;2022-12-13T14:42:18;0.00;99.90
31799;DHT22;18374;51.136;3.502;2022-12-13T14:46:16;0.00;99.90
31799;DHT22;18374;51.136;3.502;2022-12-13T14:49:38;0.00;99.90
31799;DHT22;18374;51.136;3.502;2022-12-13T14:53:00;0.00;99.90
31799;DHT22;18374;51.136;3.502;2022-12-13T14:56:20;0.00;99.90
31799;DHT22;18374;51.136;3.502;2022-12-13T14:59:45;0.00;99.90
31799;DHT22;18374;51.136;3.502;2022-12-13T15:03:06;0.00;99.90
31799;DHT22;18374;51.136;3.502;2022-12-13T15:06:45;0.00;99.90
31799;DHT22;18374;51.136;3.502;2022-12-13T15:10:18;0.00;99.90
31799;DHT22;18374;51.136;3.502;2022-12-13T15:13:42;-0.10;99.90
31799;DHT22;18374;51.136;3.502;2022-12-13T15:17:03;-0.20;99.90
31799;DHT22;18374;51.136;3.502;2022-12-13T15:20:43;-0.30;99.90
31799;DHT22;18374;51.136;3.502;2022-12-13T15:24:04;-0.30;99.90
31799;DHT22;18374;51.136;3.502;2022-12-13T15:27:27;-0.30;99.90
31799;DHT22;18374;51.136;3.502;2022-12-13T15:30:48;-0.30;99.90
31799;DHT22;18374;51.136;3.502;2022-12-13T15:33:17;-0.40;99.90
31799;DHT22;18374;51.136;3.502;2022-12-13T15:36:12;-0.50;99.90
31799;DHT22;18374;51.136;3.502;2022-12-13T15:38:50;-0.60;99.90
31799;DHT22;18374;51.136;3.502;2022-12-13T15:41:40;-0.60;99.90
31799;DHT22;18374;51.136;3.502;2022-12-13T15:44:22;-0.60;99.90
31799;DHT22;18374;51.136;3.502;2022-12-13T15:47:02;-0.60;99.90
31799;DHT22;18374;51.136;3.502;2022-12-13T15:49:35;-0.70;99.90
31799;DHT22;18374;51.136;3.502;2022-12-13T15:52:06;-0.70;99.90
31799;DHT22;18374;51.136;3.502;2022-12-13T15:57:32;-0.70;99.90
31799;DHT22;18374;51.136;3.502;2022-12-13T16:00:03;-0.70;99.90
31799;DHT22;18374;51.136;3.502;2022-12-13T16:03:10;-0.80;99.90
31799;DHT22;18374;51.136;3.502;2022-12-13T16:05:40;-0.80;99.90
31799;DHT22;18374;51.136;3.502;2022-12-13T16:10:58;-0.80;99.90
31799;DHT22;18374;51.136;3.502;2022-12-13T16:13:29;-0.80;99.90
31799;DHT22;18374;51.136;3.502;2022-12-13T16:16:00;-0.80;99.90
31799;DHT22;18374;51.136;3.502;2022-12-13T16:18:58;-0.80;99.90
31799;DHT22;18374;51.136;3.502;2022-12-13T16:21:26;-0.80;99.90
31799;DHT22;18374;51.136;3.502;2022-12-13T16:23:54;-0.80;99.90
31799;DHT22;18374;51.136;3.502;2022-12-13T16:26:23;-0.80;99.90
31799;DHT22;18374;51.136;3.502;2022-12-13T16:28:55;-0.80;99.90
31799;DHT22;18374;51.136;3.502;2022-12-13T16:31:26;-0.80;99.90
31799;DHT22;18374;51.136;3.502;2022-12-13T16:33:57;-0.80;99.90
31799;DHT22;18374;51.136;3.502;2022-12-13T16:36:24;-0.80;99.90
31799;DHT22;18374;51.136;3.502;2022-12-13T16:38:52;-0.80;99.90
31799;DHT22;18374;51.136;3.502;2022-12-13T16:41:20;-0.80;99.90
31799;DHT22;18374;51.136;3.502;2022-12-13T16:46:25;-0.70;99.90
31799;DHT22;18374;51.136;3.502;2022-12-13T16:49:31;-0.70;99.90
31799;DHT22;18374;51.136;3.502;2022-12-13T16:51:58;-0.70;99.90
31799;DHT22;18374;51.136;3.502;2022-12-13T16:54:26;-0.70;99.90
31799;DHT22;18374;51.136;3.502;2022-12-13T16:56:54;-0.80;99.90
31799;DHT22;18374;51.136;3.502;2022-12-13T16:59:23;-0.80;99.90
31799;DHT22;18374;51.136;3.502;2022-12-13T17:01:52;-0.80;99.90
31799;DHT22;18374;51.136;3.502;2022-12-13T17:04:21;-0.80;99.90
31799;DHT22;18374;51.136;3.502;2022-12-13T17:06:50;-0.80;99.90
31799;DHT22;18374;51.136;3.502;2022-12-13T17:09:21;-0.80;99.90
31799;DHT22;18374;51.136;3.502;2022-12-13T17:11:49;-0.80;99.90
31799;DHT22;18374;51.136;3.502;2022-12-13T17:14:16;-0.80;99.90
31799;DHT22;18374;51.136;3.502;2022-12-13T17:16:44;-0.80;99.90
31799;DHT22;18374;51.136;3.502;2022-12-13T17:19:12;-0.90;99.90
31799;DHT22;18374;51.136;3.502;2022-12-13T17:21:41;-0.90;99.90
31799;DHT22;18374;51.136;3.502;2022-12-13T17:24:09;-0.90;99.90
31799;DHT22;18374;51.136;3.502;2022-12-13T17:26:37;-0.90;99.90
31799;DHT22;18374;51.136;3.502;2022-12-13T17:29:04;-0.90;99.90
31799;DHT22;18374;51.136;3.502;2022-12-13T17:31:32;-0.90;99.90
31799;DHT22;18374;51.136;3.502;2022-12-13T17:34:02;-0.90;99.90
31799;DHT22;18374;51.136;3.502;2022-12-13T17:36:30;-0.90;99.90
31799;DHT22;18374;51.136;3.502;2022-12-13T17:38:58;-0.90;99.90
31799;DHT22;18374;51.136;3.502;2022-12-13T17:41:25;-0.90;99.90
31799;DHT22;18374;51.136;3.502;2022-12-13T17:43:56;-0.90;99.90
31799;DHT22;18374;51.136;3.502;2022-12-13T17:46:24;-1.00;99.90
31799;DHT22;18374;51.136;3.502;2022-12-13T17:48:52;-1.00;99.90
31799;DHT22;18374;51.136;3.502;2022-12-13T17:51:19;-1.10;99.90
31799;DHT22;18374;51.136;3.502;2022-12-13T17:53:47;-1.20;99.90
31799;DHT22;18374;51.136;3.502;2022-12-13T17:56:14;-1.20;99.90
31799;DHT22;18374;51.136;3.502;2022-12-13T17:58:42;-1.20;99.90
31799;DHT22;18374;51.136;3.502;2022-12-13T18:03:37;-1.20;99.90
31799;DHT22;18374;51.136;3.502;2022-12-13T18:06:06;-1.30;99.90
31799;DHT22;18374;51.136;3.502;2022-12-13T18:08:34;-1.30;99.90
31799;DHT22;18374;51.136;3.502;2022-12-13T18:11:02;-1.20;99.90
31799;DHT22;18374;51.136;3.502;2022-12-13T18:13:50;-1.30;99.90
31799;DHT22;18374;51.136;3.502;2022-12-13T18:16:22;-1.30;99.90
31799;DHT22;18374;51.136;3.502;2022-12-13T18:18:55;-1.40;99.90
31799;DHT22;18374;51.136;3.502;2022-12-13T18:21:24;-1.40;99.90
31799;DHT22;18374;51.136;3.502;2022-12-13T18:23:52;-1.40;99.90
31799;DHT22;18374;51.136;3.502;2022-12-13T18:26:22;-1.40;99.90
31799;DHT22;18374;51.136;3.502;2022-12-13T18:28:50;-1.30;99.90
31799;DHT22;18374;51.136;3.502;2022-12-13T18:31:19;-1.40;99.90
31799;DHT22;18374;51.136;3.502;2022-12-13T18:33:49;-1.40;99.90
31799;DHT22;18374;51.136;3.502;2022-12-13T18:36:18;-1.40;99.90
31799;DHT22;18374;51.136;3.502;2022-12-13T18:38:47;-1.40;99.90
31799;DHT22;18374;51.136;3.502;2022-12-13T18:41:15;-1.40;99.90
31799;DHT22;18374;51.136;3.502;2022-12-13T18:43:44;-1.50;99.90
31799;DHT22;18374;51.136;3.502;2022-12-13T18:46:12;-1.50;99.90
31799;DHT22;18374;51.136;3.502;2022-12-13T18:48:40;-1.60;99.90
31799;DHT22;18374;51.136;3.502;2022-12-13T18:51:08;-1.60;99.90
31799;DHT22;18374;51.136;3.502;2022-12-13T18:53:37;-1.60;99.90
31799;DHT22;18374;51.136;3.502;2022-12-13T18:56:10;-1.50;99.90
31799;DHT22;18374;51.136;3.502;2022-12-13T18:58:46;-1.60;99.90
31799;DHT22;18374;51.136;3.502;2022-12-13T19:01:15;-1.50;99.90
31799;DHT22;18374;51.136;3.502;2022-12-13T19:03:44;-1.60;99.90
31799;DHT22;18374;51.136;3.502;2022-12-13T19:06:16;-1.60;99.90
31799;DHT22;18374;51.136;3.502;2022-12-13T19:08:48;-1.60;99.90
31799;DHT22;18374;51.136;3.502;2022-12-13T19:11:18;-1.50;99.90
31799;DHT22;18374;51.136;3.502;2022-12-13T19:13:46;-1.50;99.90
31799;DHT22;18374;51.136;3.502;2022-12-13T19:16:15;-1.50;99.90
31799;DHT22;18374;51.136;3.502;2022-12-13T19:18:44;-1.50;99.90
31799;DHT22;18374;51.136;3.502;2022-12-13T19:21:13;-1.60;99.90
31799;DHT22;18374;51.136;3.502;2022-12-13T19:23:42;-1.50;99.90
31799;DHT22;18374;51.136;3.502;2022-12-13T19:26:13;-1.50;99.90
31799;DHT22;18374;51.136;3.502;2022-12-13T19:28:41;-1.60;99.90
31799;DHT22;18374;51.136;3.502;2022-12-13T19:31:10;-1.60;99.90
31799;DHT22;18374;51.136;3.502;2022-12-13T19:33:39;-1.60;99.90
31799;DHT22;18374;51.136;3.502;2022-12-13T19:36:08;-1.50;99.90
31799;DHT22;18374;51.136;3.502;2022-12-13T19:38:36;-1.50;99.90
31799;DHT22;18374;51.136;3.502;2022-12-13T19:41:05;-1.50;99.90
31799;DHT22;18374;51.136;3.502;2022-12-13T19:43:35;-1.50;99.90
31799;DHT22;18374;51.136;3.502;2022-12-13T19:46:04;-1.50;99.90
31799;DHT22;18374;51.136;3.502;2022-12-13T19:48:31;-1.40;99.90
31799;DHT22;18374;51.136;3.502;2022-12-13T19:51:00;-1.40;99.90
31799;DHT22;18374;51.136;3.502;2022-12-13T19:53:28;-1.40;99.90
31799;DHT22;18374;51.136;3.502;2022-12-13T19:55:57;-1.40;99.90
31799;DHT22;18374;51.136;3.502;2022-12-13T19:58:24;-1.30;99.90
31799;DHT22;18374;51.136;3.502;2022-12-13T20:00:53;-1.50;99.90
31799;DHT22;18374;51.136;3.502;2022-12-13T20:03:30;-1.50;99.90
31799;DHT22;18374;51.136;3.502;2022-12-13T20:05:59;-1.50;99.90
31799;DHT22;18374;51.136;3.502;2022-12-13T20:08:27;-1.50;99.90
31799;DHT22;18374;51.136;3.502;2022-12-13T20:10:59;-1.50;99.90
31799;DHT22;18374;51.136;3.502;2022-12-13T20:13:32;-1.50;99.90
31799;DHT22;18374;51.136;3.502;2022-12-13T20:16:01;-1.50;99.90
31799;DHT22;18374;51.136;3.502;2022-12-13T20:18:31;-1.60;99.90
31799;DHT22;18374;51.136;3.502;2022-12-13T20:21:03;-1.60;99.90
31799;DHT22;18374;51.136;3.502;2022-12-13T20:23:39;-1.50;99.90
31799;DHT22;18374;51.136;3.502;2022-12-13T20:26:15;-1.60;99.90
31799;DHT22;18374;51.136;3.502;2022-12-13T20:28:44;-1.60;99.90
31799;DHT22;18374;51.136;3.502;2022-12-13T20:31:13;-1.70;99.90
31799;DHT22;18374;51.136;3.502;2022-12-13T20:33:42;-1.70;99.90
31799;DHT22;18374;51.136;3.502;2022-12-13T20:36:12;-1.70;99.90
31799;DHT22;18374;51.136;3.502;2022-12-13T20:38:52;-1.70;99.90
31799;DHT22;18374;51.136;3.502;2022-12-13T20:41:22;-1.70;99.90
31799;DHT22;18374;51.136;3.502;2022-12-13T20:43:52;-1.70;99.90
31799;DHT22;18374;51.136;3.502;2022-12-13T20:46:20;-1.80;99.90
31799;DHT22;18374;51.136;3.502;2022-12-13T20:48:48;-1.70;99.90
31799;DHT22;18374;51.136;3.502;2022-12-13T20:51:17;-1.70;99.90
31799;DHT22;18374;51.136;3.502;2022-12-13T20:53:47;-1.70;99.90
31799;DHT22;18374;51.136;3.502;2022-12-13T20:56:16;-1.70;99.90
31799;DHT22;18374;51.136;3.502;2022-12-13T20:58:45;-1.80;99.90
31799;DHT22;18374;51.136;3.502;2022-12-13T21:01:14;-1.80;99.90
31799;DHT22;18374;51.136;3.502;2022-12-13T21:03:44;-1.80;99.90
31799;DHT22;18374;51.136;3.502;2022-12-13T21:06:12;-1.70;99.90
31799;DHT22;18374;51.136;3.502;2022-12-13T21:08:40;-1.70;99.90
31799;DHT22;18374;51.136;3.502;2022-12-13T21:11:24;-1.70;99.90
31799;DHT22;18374;51.136;3.502;2022-12-13T21:14:00;-1.80;99.90
31799;DHT22;18374;51.136;3.502;2022-12-13T21:16:46;-1.70;99.90
31799;DHT22;18374;51.136;3.502;2022-12-13T21:19:16;-1.70;99.90
31799;DHT22;18374;51.136;3.502;2022-12-13T21:21:49;-1.80;99.90
31799;DHT22;18374;51.136;3.502;2022-12-13T21:24:17;-1.80;99.90
31799;DHT22;18374;51.136;3.502;2022-12-13T21:26:45;-1.80;99.90
31799;DHT22;18374;51.136;3.502;2022-12-13T21:29:13;-1.80;99.90
31799;DHT22;18374;51.136;3.502;2022-12-13T21:31:43;-1.80;99.90
31799;DHT22;18374;51.136;3.502;2022-12-13T21:34:15;-1.80;99.90
31799;DHT22;18374;51.136;3.502;2022-12-13T21:36:45;-1.90;99.90
31799;DHT22;18374;51.136;3.502;2022-12-13T21:39:15;-2.00;99.90
31799;DHT22;18374;51.136;3.502;2022-12-13T21:41:43;-2.00;99.90
31799;DHT22;18374;51.136;3.502;2022-12-13T21:44:12;-2.00;99.90
31799;DHT22;18374;51.136;3.502;2022-12-13T21:46:41;-2.10;99.90
31799;DHT22;18374;51.136;3.502;2022-12-13T21:49:29;-2.10;99.90
31799;DHT22;18374;51.136;3.502;2022-12-13T21:51:57;-2.10;99.90
31799;DHT22;18374;51.136;3.502;2022-12-13T21:54:24;-2.20;99.90
31799;DHT22;18374;51.136;3.502;2022-12-13T21:56:52;-2.30;99.90